CYTZ/YTZ METAR and TAF weather

Enter ICAO airport designator
Station Type Date Time Source
CYTZ METAR 2018/05/22 13:31 UTC NOAA

CYTZ 221331Z AUTO 06012KT 9SM OVC009 13/12 A2998 RMK SLP153


Station Type Date Time Source
CYTZ Decoded METAR 2018/05/22 13:31 UTC NOAA

Toronto Island Airport Automated Reporting Station, Canada (CYTZ) 43-38N 079-24W
May 22, 2018 - 09:31 AM EDT / 2018.05.22 1331 UTC
Wind: from the ENE (060 degrees) at 14 MPH (12 KT):0
Visibility: 9 mile(s):0
Sky conditions: overcast
Temperature: 55 F (13 C)
Dew Point: 53 F (12 C)
Relative Humidity: 93%
Pressure (altimeter): 29.98 in. Hg (1015 hPa)
ob: CYTZ 221331Z AUTO 06012KT 9SM OVC009 13/12 A2998 RMK SLP153
cycle: 13

Station Type Date Time Source
CYTZ TAF 2018/05/22 11:27 UTC NOAA

TAF
AMD CYTZ 221124Z 2211/2308 07008KT P6SM -RA BKN012 OVC040
TEMPO 2211/2213 2SM -RA -DZ BR OVC004
FM221300 04008KT 2SM -RA -DZ BR OVC004
TEMPO 2213/2216 6SM BR OVC006
FM221600 VRB03KT 5SM BR OVC006
TEMPO 2216/2218 6SM BR OVC010
FM221800 VRB03KT P6SM OVC012
FM222000 VRB03KT P6SM -SHRA BKN020 PROB30 2221/2223 2SM SHRA BR OVC008
FM230100 35010KT 6SM BR SCT008 OVC025
FM230600 34008KT P6SM FEW020
RMK FCST BASED ON AUTO OBS. NXT FCST BY 221400Z


Example: see airport list